Time;durP1;ratioP1;P1;durP2;ratioP2;P2;SDS_P1;SDS_P2;PMS_P1;PMS_P2;Temp;Humidity;BMP_temperature;BMP_pressure;BME280_temperature;BME280_humidity;BME280_pressure;Samples;Min_cycle;Max_cycle;Signal;HPM_P1;HPM_P2
2022/04/25 00:02:24;;;;;;;6.82;3.58;;;;;;;10.13;88.14;101165.47;5112301;28;20384;-27
2022/04/25 00:04:53;;;;;;;4.57;2.90;;;;;;;10.07;87.31;101161.84;5111872;28;20047;-25
2022/04/25 00:07:20;;;;;;;5.30;3.22;;;;;;;10.03;86.87;101160.75;5111377;28;20503;-25
2022/04/25 00:09:49;;;;;;;5.75;3.33;;;;;;;10.00;86.69;101164.13;5110777;28;20242;-27
2022/04/25 00:12:18;;;;;;;5.40;3.15;;;;;;;9.97;86.50;101164.72;5110814;28;20044;-27
2022/04/25 00:14:46;;;;;;;9.30;3.72;;;;;;;9.94;86.53;101171.72;5111764;28;20130;-28
2022/04/25 00:17:13;;;;;;;5.65;2.88;;;;;;;9.92;87.02;101171.16;5110544;28;20051;-26
2022/04/25 00:19:41;;;;;;;9.05;3.53;;;;;;;9.90;87.05;101172.56;5109561;28;20055;-27
2022/04/25 00:22:09;;;;;;;6.30;3.17;;;;;;;9.86;86.45;101168.66;5113188;28;20382;-26
2022/04/25 00:24:37;;;;;;;4.25;2.70;;;;;;;9.86;86.56;101163.94;5113225;28;20056;-26
2022/04/25 00:27:05;;;;;;;6.07;2.80;;;;;;;9.87;86.41;101167.56;5113421;28;20048;-27
2022/04/25 00:29:34;;;;;;;5.65;3.08;;;;;;;9.86;86.69;101175.09;5111767;28;20044;-27
2022/04/25 00:32:01;;;;;;;5.97;2.83;;;;;;;9.88;87.09;101161.69;5106044;28;20036;-26
2022/04/25 00:34:29;;;;;;;6.22;2.97;;;;;;;9.88;87.66;101172.84;5112984;28;20044;-26
2022/04/25 00:36:58;;;;;;;8.38;3.50;;;;;;;9.89;88.29;101165.31;5112056;28;20043;-27
2022/04/25 00:39:25;;;;;;;5.90;2.97;;;;;;;9.88;88.52;101164.47;5113015;28;20043;-28
2022/04/25 00:41:53;;;;;;;11.27;4.35;;;;;;;9.87;89.00;101162.81;5112913;28;20056;-26
2022/04/25 00:44:21;;;;;;;6.00;2.92;;;;;;;9.86;89.33;101160.31;5112003;28;20051;-27
2022/04/25 00:46:53;;;;;;;9.18;3.55;;;;;;;9.84;89.49;101163.38;5112935;28;20089;-29
2022/04/25 00:49:21;;;;;;;10.13;3.38;;;;;;;9.84;89.41;101162.56;5112598;28;20051;-28
2022/04/25 00:51:51;;;;;;;7.35;3.20;;;;;;;9.85;89.73;101159.47;5112152;28;20123;-33
2022/04/25 00:54:20;;;;;;;7.97;3.33;;;;;;;9.85;90.16;101159.47;5112277;28;20556;-27
2022/04/25 00:56:49;;;;;;;7.90;2.90;;;;;;;9.85;90.94;101153.91;5112786;28;20047;-26
2022/04/25 00:59:18;;;;;;;6.13;3.10;;;;;;;9.84;91.11;101157.81;5111666;28;20055;-27
2022/04/25 01:01:46;;;;;;;6.80;3.13;;;;;;;9.83;91.55;101167.28;5112862;28;20138;-26
2022/04/25 01:04:16;;;;;;;8.18;3.33;;;;;;;9.83;91.97;101158.09;5112565;28;20051;-27
2022/04/25 01:06:43;;;;;;;7.97;3.00;;;;;;;9.82;92.48;101159.22;5111807;27;20048;-27
2022/04/25 01:09:11;;;;;;;5.78;2.75;;;;;;;9.80;93.39;101156.72;5112384;28;20070;-27
2022/04/25 01:11:39;;;;;;;10.82;3.38;;;;;;;9.77;94.00;101148.13;5110220;28;20047;-29
2022/04/25 01:14:12;;;;;;;7.50;2.92;;;;;;;9.74;94.63;101152.31;5112060;28;20050;-26
2022/04/25 01:16:39;;;;;;;;;;;;;;;9.67;95.95;101155.41;5112302;28;20047;-30
2022/04/25 01:19:07;;;;;;;8.15;3.25;;;;;;;9.62;96.16;101144.25;5111540;28;19949;-28
2022/04/25 01:21:42;;;;;;;9.65;3.00;;;;;;;9.64;95.78;101153.19;5112238;28;20054;-27
2022/04/25 01:27:16;;;;;;;9.45;3.25;;;;;;;9.63;96.43;101150.66;5110607;28;20441;-27
2022/04/25 01:29:45;;;;;;;8.32;3.40;;;;;;;9.61;96.78;101150.13;5112254;28;20057;-29
2022/04/25 01:32:15;;;;;;;10.15;3.83;;;;;;;9.63;97.34;101150.66;5110905;28;20408;-26
2022/04/25 01:34:43;;;;;;;9.55;3.63;;;;;;;9.64;97.38;101146.75;5111044;28;20083;-26
2022/04/25 01:37:12;;;;;;;7.28;3.10;;;;;;;9.63;97.41;101148.72;5111805;28;20062;-26
2022/04/25 01:39:43;;;;;;;8.00;3.42;;;;;;;9.63;97.93;101153.47;5111613;28;20046;-29
2022/04/25 01:42:11;;;;;;;9.68;3.40;;;;;;;9.65;98.16;101148.44;5109117;28;20067;-29
2022/04/25 01:44:40;;;;;;;6.80;3.05;;;;;;;9.64;98.35;101149.56;5110791;28;20142;-28
2022/04/25 01:47:09;;;;;;;7.70;3.63;;;;;;;9.65;98.53;101151.22;5110890;28;20124;-29
2022/04/25 01:49:37;;;;;;;7.43;3.15;;;;;;;9.65;98.70;101148.44;5110551;28;20382;-27
2022/04/25 01:52:09;;;;;;;8.15;3.70;;;;;;;9.65;99.21;101143.69;5111646;28;20045;-29
2022/04/25 01:54:36;;;;;;;7.13;3.20;;;;;;;9.67;99.26;101151.78;5110970;28;20051;-27
2022/04/25 01:57:06;;;;;;;12.15;3.67;;;;;;;9.68;99.31;101147.88;5111715;28;20051;-26
2022/04/25 01:59:34;;;;;;;7.88;3.28;;;;;;;9.70;99.40;101155.94;5111574;28;20389;-27
2022/04/25 02:02:02;;;;;;;12.75;3.78;;;;;;;9.71;99.69;101152.88;5110701;28;20039;-26
2022/04/25 02:04:30;;;;;;;7.65;3.50;;;;;;;9.71;99.54;101158.44;5111238;28;20044;-28
2022/04/25 02:06:59;;;;;;;9.98;3.83;;;;;;;9.73;99.68;101156.22;5111017;28;20707;-29
2022/04/25 02:09:34;;;;;;;11.18;3.90;;;;;;;9.71;100.00;101158.44;5110856;28;20089;-27
2022/04/25 02:12:02;;;;;;;9.15;3.75;;;;;;;9.71;100.00;101147.31;5111436;28;20053;-27
2022/04/25 02:14:31;;;;;;;9.65;4.25;;;;;;;9.72;100.00;101143.41;5111333;28;20047;-29
2022/04/25 02:17:00;;;;;;;13.20;4.30;;;;;;;9.72;100.00;101150.91;5099436;28;20051;-26
2022/04/25 02:19:29;;;;;;;13.70;4.88;;;;;;;9.72;100.00;101148.97;5111553;28;20054;-27
2022/04/25 02:21:58;;;;;;;9.95;4.03;;;;;;;9.73;100.00;101152.59;5110257;28;20492;-26
2022/04/25 02:24:25;;;;;;;10.65;4.38;;;;;;;9.74;100.00;101152.31;5100153;28;20071;-26
2022/04/25 02:26:53;;;;;;;10.40;4.15;;;;;;;9.74;100.00;101141.16;5111331;28;20056;-27
2022/04/25 02:29:22;;;;;;;11.10;4.05;;;;;;;9.77;100.00;101156.47;5110465;28;20048;-26
2022/04/25 02:31:51;;;;;;;11.60;3.80;;;;;;;9.78;100.00;101150.63;5111405;28;20047;-28
2022/04/25 02:34:19;;;;;;;9.38;4.00;;;;;;;9.76;100.00;101150.06;5107745;28;20052;-26
2022/04/25 02:36:46;;;;;;;7.65;3.15;;;;;;;9.76;100.00;101144.50;5110523;28;20059;-29
2022/04/25 02:39:14;;;;;;;9.45;3.80;;;;;;;9.75;100.00;101153.13;5109882;28;20565;-28
2022/04/25 02:41:42;;;;;;;10.60;4.07;;;;;;;9.75;100.00;101150.34;5111064;28;20079;-31
2022/04/25 02:44:10;;;;;;;9.18;4.00;;;;;;;9.73;100.00;101138.66;5110451;28;20056;-29
2022/04/25 02:46:38;;;;;;;7.35;3.45;;;;;;;9.71;100.00;101141.72;5111136;28;20104;-26
2022/04/25 02:49:07;;;;;;;10.65;4.07;;;;;;;9.67;100.00;101147.03;5111237;28;20120;-27
2022/04/25 02:51:34;;;;;;;9.23;3.45;;;;;;;9.62;100.00;101149.00;5110265;28;20051;-25
2022/04/25 02:54:02;;;;;;;7.88;3.70;;;;;;;9.56;100.00;101133.44;5110817;28;20043;-27
2022/04/25 02:56:31;;;;;;;13.80;4.50;;;;;;;9.53;100.00;101143.22;5110833;28;20489;-30
2022/04/25 02:58:58;;;;;;;11.00;3.85;;;;;;;9.50;100.00;101145.72;5110325;28;20122;-27
2022/04/25 03:01:27;;;;;;;14.88;4.00;;;;;;;9.44;100.00;101146.84;5111053;28;20138;-26
2022/04/25 03:03:55;;;;;;;8.25;3.90;;;;;;;9.40;100.00;101141.00;5110970;28;20054;-30
2022/04/25 03:06:24;;;;;;;8.98;3.90;;;;;;;9.35;100.00;101138.28;5110768;28;20135;-27
2022/04/25 03:08:51;;;;;;;8.38;3.83;;;;;;;9.31;100.00;101137.16;5110823;28;20032;-30
2022/04/25 03:11:19;;;;;;;8.57;3.80;;;;;;;9.26;100.00;101129.66;5110284;28;20194;-27
2022/04/25 03:13:48;;;;;;;8.45;3.67;;;;;;;9.23;100.00;101137.75;5111104;28;20043;-27
2022/04/25 03:16:17;;;;;;;7.47;3.85;;;;;;;9.19;100.00;101129.13;5111455;28;20035;-29
2022/04/25 03:18:45;;;;;;;8.93;3.78;;;;;;;9.18;100.00;101135.00;5113855;28;20457;-28
2022/04/25 03:21:13;;;;;;;13.90;4.30;;;;;;;9.17;100.00;101131.38;5114530;28;20047;-26
2022/04/25 03:23:42;;;;;;;12.13;4.10;;;;;;;9.15;100.00;101130.81;5114151;28;20126;-25
2022/04/25 03:26:10;;;;;;;8.20;3.80;;;;;;;9.16;100.00;101129.72;5113928;27;20039;-28
2022/04/25 03:28:38;;;;;;;9.60;3.70;;;;;;;9.16;100.00;101135.28;5114182;28;20055;-25
2022/04/25 03:31:07;;;;;;;10.85;4.47;;;;;;;9.18;100.00;101133.03;5114777;28;20044;-26
2022/04/25 03:33:35;;;;;;;8.35;3.67;;;;;;;9.18;100.00;101130.25;5113471;28;20044;-28
2022/04/25 03:36:03;;;;;;;6.85;3.60;;;;;;;9.18;100.00;101133.03;5113967;28;20055;-26
2022/04/25 03:38:31;;;;;;;11.88;3.58;;;;;;;9.19;100.00;101140.25;5114451;28;20438;-28
2022/04/25 03:41:01;;;;;;;8.95;4.28;;;;;;;9.22;100.00;101141.63;5113011;28;20058;-29
2022/04/25 03:43:31;;;;;;;8.52;3.72;;;;;;;9.23;100.00;101143.31;5112832;28;20126;-27
2022/04/25 03:46:00;;;;;;;10.60;4.00;;;;;;;9.23;100.00;101149.72;5114043;28;20464;-26
2022/04/25 03:48:28;;;;;;;9.90;3.70;;;;;;;9.25;100.00;101144.69;5113086;27;20058;-28
2022/04/25 03:50:56;;;;;;;11.30;4.40;;;;;;;9.25;100.00;101139.13;5113891;28;20069;-26
2022/04/25 03:53:23;;;;;;;8.57;3.60;;;;;;;9.24;100.00;101148.59;5111479;28;20054;-28
2022/04/25 03:58:38;;;;;;;9.50;4.15;;;;;;;9.24;100.00;101154.16;5111845;28;20044;-26
2022/04/25 04:01:06;;;;;;;9.07;3.60;;;;;;;9.23;100.00;101148.88;5110981;28;20055;-27
2022/04/25 04:03:34;;;;;;;8.98;3.53;;;;;;;9.23;100.00;101151.66;5111875;28;20079;-26
2022/04/25 04:06:03;;;;;;;8.57;3.45;;;;;;;9.23;100.00;101155.28;5111630;28;20059;-28
2022/04/25 04:08:31;;;;;;;8.90;3.53;;;;;;;9.22;100.00;101153.63;5111360;28;20039;-26
2022/04/25 04:10:59;;;;;;;9.13;4.00;;;;;;;9.23;100.00;101162.81;5113391;28;20114;-27
2022/04/25 04:13:27;;;;;;;11.98;3.90;;;;;;;9.21;100.00;101156.69;5112227;28;20042;-26
2022/04/25 04:15:56;;;;;;;9.75;3.92;;;;;;;9.21;100.00;101165.88;5111671;28;20040;-26
2022/04/25 04:18:24;;;;;;;10.90;3.80;;;;;;;9.20;100.00;101157.78;5102131;28;20048;-29
2022/04/25 04:20:52;;;;;;;7.45;3.30;;;;;;;9.19;100.00;101159.75;5111889;28;20322;-27
2022/04/25 04:23:20;;;;;;;8.13;3.53;;;;;;;9.20;100.00;101169.75;5111296;28;20047;-28
2022/04/25 04:25:47;;;;;;;9.25;3.17;;;;;;;9.21;100.00;101159.47;5110300;28;20048;-26
2022/04/25 04:28:15;;;;;;;10.27;3.60;;;;;;;9.23;100.00;101168.38;5111517;28;20052;-27
2022/04/25 04:30:46;;;;;;;9.75;3.58;;;;;;;9.23;100.00;101158.06;5111263;28;20473;-26
2022/04/25 04:33:15;;;;;;;10.43;3.30;;;;;;;9.24;100.00;101162.53;5112474;28;20207;-30
2022/04/25 04:38:28;;;;;;;7.05;2.58;;;;;;;9.25;100.00;101161.41;5112062;28;20048;-29
2022/04/25 04:40:56;;;;;;;6.68;2.80;;;;;;;9.26;100.00;101163.06;5110351;28;20056;-26
2022/04/25 04:43:24;;;;;;;9.18;3.28;;;;;;;9.29;100.00;101173.66;5110857;28;20047;-26
2022/04/25 04:45:51;;;;;;;7.03;2.78;;;;;;;9.31;100.00;101165.84;5111767;28;20396;-26
2022/04/25 04:48:20;;;;;;;8.10;2.80;;;;;;;9.33;100.00;101171.97;5109521;28;20055;-26
2022/04/25 04:50:50;;;;;;;7.85;2.78;;;;;;;9.33;100.00;101174.75;5110786;28;20046;-27
2022/04/25 04:53:18;;;;;;;6.20;2.42;;;;;;;9.33;100.00;101179.50;5111505;28;20428;-28
2022/04/25 04:55:46;;;;;;;8.95;3.08;;;;;;;9.34;100.00;101186.72;5104022;28;20048;-26
2022/04/25 04:58:13;;;;;;;8.80;2.63;;;;;;;9.34;100.00;101183.94;5110128;28;20050;-27
2022/04/25 05:00:44;;;;;;;7.88;3.00;;;;;;;9.33;100.00;101183.13;5111404;28;20047;-27
2022/04/25 05:03:13;;;;;;;10.55;2.80;;;;;;;9.32;100.00;101189.81;5109228;28;20043;-27
2022/04/25 05:05:43;;;;;;;9.70;2.45;;;;;;;9.33;100.00;101191.47;5110135;28;20052;-26
2022/04/25 05:08:11;;;;;;;9.15;2.85;;;;;;;9.35;100.00;101198.72;5111479;28;20040;-27
2022/04/25 05:10:38;;;;;;;6.45;2.60;;;;;;;9.38;100.00;101192.56;5110641;28;20044;-26
2022/04/25 05:13:06;;;;;;;9.18;2.80;;;;;;;9.41;100.00;101197.56;5110874;28;20039;-34
2022/04/25 05:15:34;;;;;;;10.73;3.15;;;;;;;9.47;100.00;101213.16;5111593;27;20469;-27
2022/04/25 05:18:02;;;;;;;11.05;3.08;;;;;;;9.49;100.00;101208.97;5098781;28;20048;-27
2022/04/25 05:20:29;;;;;;;7.05;3.00;;;;;;;9.51;100.00;101212.31;5110768;28;20100;-28
2022/04/25 05:22:59;;;;;;;8.82;3.15;;;;;;;9.55;100.00;101212.56;5109927;28;20538;-28
2022/04/25 05:25:27;;;;;;;7.43;2.88;;;;;;;9.58;100.00;101209.22;5099498;28;20055;-28
2022/04/25 05:27:56;;;;;;;6.13;2.65;;;;;;;9.58;100.00;101212.00;5108517;28;20048;-27
2022/04/25 05:30:25;;;;;;;8.23;2.53;;;;;;;9.60;100.00;101223.69;5112104;28;20044;-27
2022/04/25 05:32:55;;;;;;;6.40;2.63;;;;;;;9.60;100.00;101224.50;5111123;28;20043;-26
2022/04/25 05:35:25;;;;;;;6.57;2.92;;;;;;;9.60;100.00;101218.09;5109027;28;20048;-27
2022/04/25 05:37:53;;;;;;;9.50;3.00;;;;;;;9.61;100.00;101223.41;5111749;28;20051;-26
2022/04/25 05:40:23;;;;;;;7.05;2.55;;;;;;;9.64;100.00;101224.78;5109807;28;20068;-27
2022/04/25 05:42:52;;;;;;;11.68;3.30;;;;;;;9.64;100.00;101233.16;5111775;28;20050;-27
2022/04/25 05:45:21;;;;;;;7.07;2.95;;;;;;;9.64;100.00;101239.56;5111737;28;20055;-28
2022/04/25 05:47:50;;;;;;;10.48;3.22;;;;;;;9.65;100.00;101248.75;5111180;28;20054;-27
2022/04/25 05:53:04;;;;;;;10.73;2.67;;;;;;;9.63;100.00;101250.97;5110855;28;20471;-27
2022/04/25 05:55:34;;;;;;;8.80;3.13;;;;;;;9.65;100.00;101254.31;5111201;28;20120;-27
2022/04/25 05:58:02;;;;;;;5.80;2.80;;;;;;;9.64;100.00;101247.91;5111879;28;20055;-26
2022/04/25 06:00:31;;;;;;;6.22;2.50;;;;;;;9.66;100.00;101256.00;5110768;28;20079;-27
2022/04/25 06:02:59;;;;;;;8.32;3.03;;;;;;;9.69;100.00;101261.00;5111483;28;20089;-27
2022/04/25 06:05:27;;;;;;;7.45;2.50;;;;;;;9.70;100.00;101254.31;5111495;28;20054;-27
2022/04/25 06:07:55;;;;;;;7.40;2.53;;;;;;;9.71;100.00;101263.50;5110609;28;20484;-27
2022/04/25 06:10:25;;;;;;;8.07;2.63;;;;;;;9.69;100.00;101258.22;5111643;28;20046;-29
2022/04/25 06:12:55;;;;;;;9.05;3.20;;;;;;;9.67;100.00;101252.09;5111709;28;20039;-30
2022/04/25 06:15:25;;;;;;;7.07;2.80;;;;;;;9.69;100.00;101255.44;5110771;28;20048;-29
2022/04/25 06:17:54;;;;;;;7.45;2.53;;;;;;;9.68;99.83;101257.38;5111497;28;20098;-27
2022/04/25 06:20:22;;;;;;;7.90;3.10;;;;;;;9.67;99.67;101261.28;5111195;28;20047;-29
2022/04/25 06:22:54;;;;;;;6.57;2.78;;;;;;;9.70;99.77;101262.66;5110673;28;20043;-27
2022/04/25 06:25:22;;;;;;;6.50;2.88;;;;;;;9.67;99.63;101258.50;5111115;28;20541;-29
2022/04/25 06:27:50;;;;;;;9.18;3.20;;;;;;;9.67;99.71;101258.50;5111519;28;20130;-32
2022/04/25 06:30:23;;;;;;;7.10;2.83;;;;;;;9.69;99.87;101255.44;5110339;28;20066;-28
2022/04/25 06:32:51;;;;;;;5.88;2.60;;;;;;;9.68;99.72;101267.69;5111368;28;20108;-27
2022/04/25 06:35:20;;;;;;;8.43;3.00;;;;;;;9.67;99.94;101263.22;5110270;28;20048;-27
2022/04/25 06:37:48;;;;;;;8.30;2.80;;;;;;;9.66;100.00;101265.19;5111325;28;20054;-27
2022/04/25 06:40:16;;;;;;;8.85;3.30;;;;;;;9.64;100.00;101261.84;5110801;28;20176;-28
2022/04/25 06:42:43;;;;;;;9.75;2.63;;;;;;;9.65;100.00;101260.72;5110672;28;20130;-27
2022/04/25 06:45:13;;;;;;;7.72;2.83;;;;;;;9.68;100.00;101259.31;5110914;28;20058;-27
2022/04/25 06:47:42;;;;;;;5.93;2.53;;;;;;;9.72;100.00;101267.97;5111534;28;20075;-28
2022/04/25 06:50:10;;;;;;;6.93;2.90;;;;;;;9.70;100.00;101262.66;5110329;28;20432;-27
2022/04/25 06:52:39;;;;;;;7.40;2.53;;;;;;;9.70;100.00;101276.59;5113753;28;20071;-30
2022/04/25 06:55:07;;;;;;;8.55;2.70;;;;;;;9.72;100.00;101273.53;5115006;28;20063;-28
2022/04/25 06:57:36;;;;;;;10.18;2.95;;;;;;;9.71;100.00;101269.91;5114170;28;20039;-27
2022/04/25 07:00:08;;;;;;;6.35;2.97;;;;;;;9.70;100.00;101270.19;5114887;28;20378;-28
2022/04/25 07:02:57;;;;;;;5.47;2.70;;;;;;;9.69;100.00;101272.16;5113881;28;20046;-27
2022/04/25 07:05:25;;;;;;;7.70;2.75;;;;;;;9.71;100.00;101281.06;5114381;28;20055;-27
2022/04/25 07:07:53;;;;;;;7.38;2.88;;;;;;;9.74;100.00;101271.31;5113456;28;20403;-28
2022/04/25 07:10:21;;;;;;;6.57;2.78;;;;;;;9.73;99.90;101273.25;5113965;28;20051;-27
2022/04/25 07:12:49;;;;;;;5.82;2.47;;;;;;;9.75;99.84;101282.16;5114607;27;20051;-28
2022/04/25 07:15:17;;;;;;;7.85;2.80;;;;;;;9.77;99.80;101277.16;5114838;28;20063;-32
2022/04/25 07:17:44;;;;;;;6.60;2.38;;;;;;;9.79;99.67;101271.28;5113693;28;20036;-29
2022/04/25 07:20:13;;;;;;;8.35;3.15;;;;;;;9.81;99.77;101275.44;5114582;28;20047;-30
2022/04/25 07:30:58;;;;;;;6.65;2.55;;;;;;;9.83;100.00;101272.38;5107195;28;20040;-27
2022/04/25 07:33:27;;;;;;;11.32;3.15;;;;;;;9.87;99.95;101273.47;5113503;28;20054;-26
2022/04/25 07:35:56;;;;;;;7.10;2.95;;;;;;;9.89;99.90;101268.44;5114575;28;20039;-27
2022/04/25 07:38:24;;;;;;;5.85;2.63;;;;;;;9.92;99.95;101276.25;5113587;28;20051;-28
2022/04/25 07:40:52;;;;;;;7.07;3.10;;;;;;;9.99;100.00;101274.81;5113987;28;20066;-27
2022/04/25 07:43:19;;;;;;;6.88;2.25;;;;;;;10.03;99.82;101277.88;5114103;28;20058;-28
2022/04/25 07:45:47;;;;;;;7.88;2.80;;;;;;;10.07;99.52;101281.75;5113147;28;20047;-28
2022/04/25 07:48:15;;;;;;;7.82;3.35;;;;;;;10.10;99.07;101283.16;5114474;28;20392;-28
2022/04/25 07:50:44;;;;;;;7.18;3.03;;;;;;;10.12;98.70;101278.13;5113899;28;20434;-29
2022/04/25 07:53:13;;;;;;;9.45;3.25;;;;;;;10.16;98.37;101284.78;5113226;28;20059;-27
2022/04/25 07:55:41;;;;;;;7.55;2.60;;;;;;;10.14;98.00;101287.03;5113919;28;20050;-27
2022/04/25 07:58:09;;;;;;;7.47;2.60;;;;;;;10.17;98.26;101290.09;5113629;28;20482;-33
2022/04/25 08:00:38;;;;;;;5.28;2.70;;;;;;;10.19;97.98;101285.06;5100627;28;20412;-27
2022/04/25 08:03:08;;;;;;;8.63;3.20;;;;;;;10.23;97.65;101299.28;5109077;28;20043;-29
2022/04/25 08:05:36;;;;;;;6.85;3.05;;;;;;;10.24;97.44;101295.38;5113539;28;20061;-27
2022/04/25 08:08:04;;;;;;;9.02;3.13;;;;;;;10.28;97.35;101300.09;5112632;28;20044;-29
2022/04/25 08:10:33;;;;;;;7.28;3.20;;;;;;;10.28;96.73;101302.88;5110413;28;20052;-28
2022/04/25 08:18:32;;;;;;;8.00;3.17;;;;;;;10.38;96.64;101293.66;5112884;28;20855;-26
2022/04/25 08:21:00;;;;;;;7.93;2.97;;;;;;;10.42;96.51;101316.19;5112735;28;20048;-29
2022/04/25 08:23:28;;;;;;;6.45;2.80;;;;;;;10.45;96.64;101307.25;5113077;28;20139;-27
2022/04/25 08:25:57;;;;;;;6.03;2.67;;;;;;;10.50;96.70;101316.44;5113667;28;20040;-27
2022/04/25 08:28:25;;;;;;;7.65;3.00;;;;;;;10.51;96.56;101308.91;5112395;28;20127;-26
2022/04/25 08:31:13;;;;;;;7.32;2.70;;;;;;;10.51;96.72;101311.69;5113549;28;20036;-27
2022/04/25 08:33:48;;;;;;;9.10;3.50;;;;;;;10.53;96.83;101313.09;5112873;28;20071;-27
2022/04/25 08:36:18;;;;;;;8.45;3.40;;;;;;;10.57;96.79;101316.13;5111917;28;20400;-28
2022/04/25 08:38:46;;;;;;;9.68;3.88;;;;;;;10.57;96.87;101316.13;5113137;28;20089;-27
2022/04/25 08:41:20;;;;;;;6.97;3.72;;;;;;;10.54;96.48;101330.66;5112673;28;20055;-29
2022/04/25 08:43:51;;;;;;;7.93;3.97;;;;;;;10.55;97.07;101333.16;5112188;28;20055;-26
2022/04/25 08:46:22;;;;;;;10.50;3.90;;;;;;;10.56;97.20;101339.59;5111450;28;20051;-26
2022/04/25 08:48:50;;;;;;;7.55;4.05;;;;;;;10.62;97.48;101333.66;5111959;28;20055;-26
2022/04/25 08:51:22;;;;;;;8.48;3.97;;;;;;;10.73;97.55;101337.25;5112698;28;20053;-28
2022/04/25 08:53:53;;;;;;;10.45;3.85;;;;;;;10.85;97.24;101339.66;5112632;28;20142;-27
2022/04/25 08:56:25;;;;;;;9.43;4.28;;;;;;;10.94;96.43;101337.94;5111740;28;20051;-26
2022/04/25 08:58:53;;;;;;;9.77;4.40;;;;;;;10.94;95.66;101340.72;5105821;28;20044;-30
2022/04/25 09:01:22;;;;;;;6.35;3.58;;;;;;;10.94;95.14;101340.72;5112594;28;20100;-26
2022/04/25 09:03:50;;;;;;;6.30;3.65;;;;;;;10.95;95.21;101339.63;5110513;28;20451;-26
2022/04/25 09:06:18;;;;;;;7.75;3.60;;;;;;;10.99;94.95;101340.72;5112537;28;20075;-26
2022/04/25 09:08:47;;;;;;;6.40;3.28;;;;;;;11.05;94.91;101347.91;5112473;28;20035;-28
2022/04/25 09:14:02;;;;;;;8.07;3.55;;;;;;;11.15;94.12;101361.81;5112042;28;20047;-27
2022/04/25 09:16:30;;;;;;;7.70;3.47;;;;;;;11.21;93.88;101357.81;5112169;28;20377;-29
2022/04/25 09:18:58;;;;;;;7.03;3.55;;;;;;;11.28;93.27;101368.69;5111208;28;20476;-29
2022/04/25 09:21:27;;;;;;;8.13;3.95;;;;;;;11.32;92.73;101369.78;5112267;28;20044;-27
2022/04/25 09:23:55;;;;;;;7.32;3.92;;;;;;;11.50;93.07;101362.63;5111367;28;20067;-28
2022/04/25 09:26:27;;;;;;;9.52;3.70;;;;;;;11.72;92.76;101365.78;5112172;28;20047;-29
2022/04/25 09:28:57;;;;;;;8.73;4.00;;;;;;;11.86;91.52;101374.34;5111243;28;20047;-27
2022/04/25 09:31:26;;;;;;;6.03;3.35;;;;;;;11.99;91.31;101382.84;5111171;28;20044;-29
2022/04/25 09:33:55;;;;;;;8.50;4.03;;;;;;;12.15;90.55;101379.91;5111864;28;20579;-28
2022/04/25 09:36:22;;;;;;;8.75;4.50;;;;;;;12.21;88.96;101390.72;5111947;28;20400;-28
2022/04/25 09:38:50;;;;;;;6.82;3.50;;;;;;;12.27;87.65;101385.91;5111180;28;20040;-29
2022/04/25 09:41:18;;;;;;;5.53;3.28;;;;;;;12.36;87.46;101384.13;5111472;28;20074;-27
2022/04/25 09:43:49;;;;;;;6.30;3.17;;;;;;;12.48;87.30;101390.13;5112221;28;20080;-27
2022/04/25 09:46:18;;;;;;;6.05;3.53;;;;;;;12.55;86.08;101385.00;5110687;28;20047;-27
2022/04/25 09:49:03;;;;;;;7.63;3.88;;;;;;;12.69;85.38;101391.53;5108328;28;20126;-27
2022/04/25 09:51:31;;;;;;;7.68;3.42;;;;;;;12.77;85.79;101390.03;5111515;28;20485;-29
2022/04/25 09:54:01;;;;;;;7.13;3.45;;;;;;;12.97;85.73;101381.34;5110754;28;20044;-29
2022/04/25 09:56:30;;;;;;;5.90;3.25;;;;;;;13.31;84.09;101385.91;5111644;28;20134;-32
2022/04/25 09:59:01;;;;;;;4.60;3.05;;;;;;;13.61;82.43;101396.59;5109737;28;20048;-29
2022/04/25 10:01:30;;;;;;;6.57;2.92;;;;;;;13.86;81.26;101398.13;5111396;28;20055;-28
2022/04/25 10:03:59;;;;;;;5.07;2.95;;;;;;;14.07;80.79;101402.22;5111549;28;20130;-27
2022/04/25 10:06:32;;;;;;;6.25;3.00;;;;;;;14.09;77.03;101397.13;5110962;28;20134;-31
2022/04/25 10:09:02;;;;;;;6.07;3.58;;;;;;;14.07;76.49;101407.00;5111314;28;20074;-27
2022/04/25 10:11:34;;;;;;;8.27;3.53;;;;;;;14.02;76.31;101409.91;5111416;28;20054;-28
2022/04/25 10:14:02;;;;;;;6.13;3.50;;;;;;;13.98;76.34;101411.69;5110301;28;20052;-27
2022/04/25 10:16:31;;;;;;;6.07;3.15;;;;;;;13.94;76.38;101408.66;5111705;28;20051;-31
2022/04/25 10:18:59;;;;;;;6.68;3.28;;;;;;;13.84;75.78;101422.00;5111637;28;20530;-28
2022/04/25 10:21:30;;;;;;;4.78;2.85;;;;;;;13.72;76.62;101422.50;5110568;28;20062;-30
2022/04/25 10:23:58;;;;;;;5.50;2.58;;;;;;;13.63;77.34;101419.56;5111220;28;20043;-28
2022/04/25 10:26:26;;;;;;;5.63;2.85;;;;;;;13.58;77.92;101430.88;5111006;28;20047;-27
2022/04/25 10:28:57;;;;;;;6.82;3.17;;;;;;;13.44;78.29;101425.19;5115001;27;20052;-28
2022/04/25 10:31:28;;;;;;;7.20;3.20;;;;;;;13.36;78.72;101422.25;5115563;28;20063;-27
2022/04/25 10:33:58;;;;;;;7.95;3.40;;;;;;;13.33;78.90;101418.09;5115730;28;20035;-27
2022/04/25 10:36:44;;;;;;;7.85;2.53;;;;;;;13.41;79.12;101424.97;5114680;28;20101;-27
2022/04/25 10:39:14;;;;;;;5.20;2.38;;;;;;;13.37;78.62;101423.94;5115549;28;20067;-30
2022/04/25 10:44:59;;;;;;;7.88;3.05;;;;;;;13.42;77.97;101435.88;5115450;28;20044;-27
2022/04/25 10:47:28;;;;;;;6.30;2.60;;;;;;;13.37;78.00;101427.56;5107786;28;20103;-26
2022/04/25 10:50:05;;;;;;;6.15;2.60;;;;;;;13.40;77.65;101434.50;5114320;28;20595;-29
2022/04/25 10:52:54;;;;;;;5.40;2.50;;;;;;;13.39;77.97;101422.47;5115153;28;20054;-26
2022/04/25 10:55:29;;;;;;;5.03;2.80;;;;;;;13.37;78.15;101423.94;5114178;28;20458;-28
2022/04/25 10:58:17;;;;;;;9.05;2.80;;;;;;;13.33;77.91;101437.72;5108720;28;20051;-27
2022/04/25 11:00:54;;;;;;;6.45;2.75;;;;;;;13.24;78.51;101431.13;5113201;28;20567;-26
2022/04/25 11:03:32;;;;;;;5.60;2.67;;;;;;;13.25;79.24;101431.94;5114020;28;20055;-27
2022/04/25 11:06:02;;;;;;;5.07;2.50;;;;;;;13.22;79.39;101427.78;5113629;28;20050;-28
2022/04/25 11:08:36;;;;;;;4.07;2.22;;;;;;;13.18;79.21;101439.94;5114685;28;20047;-28
2022/04/25 11:11:16;;;;;;;4.78;2.58;;;;;;;13.15;79.68;101435.75;5112292;28;20138;-27
2022/04/25 11:14:12;;;;;;;6.60;2.97;;;;;;;13.12;78.82;101441.94;5114775;28;20058;-26
2022/04/25 11:16:40;;;;;;;6.97;2.50;;;;;;;13.04;79.20;101442.59;5113716;28;20043;-34
2022/04/25 11:19:11;;;;;;;7.25;2.63;;;;;;;12.97;79.01;101442.16;5114571;28;20061;-29
2022/04/25 11:21:47;;;;;;;5.60;2.60;;;;;;;12.93;79.19;101446.69;5113982;28;20378;-28
2022/04/25 11:24:38;;;;;;;5.72;2.45;;;;;;;12.89;81.00;101451.22;5113735;28;20130;-27
2022/04/25 11:27:11;;;;;;;8.13;2.20;;;;;;;12.88;82.35;101447.56;5111745;28;20396;-29
2022/04/25 11:29:45;;;;;;;10.30;2.63;;;;;;;12.95;83.07;101448.03;5114048;28;20488;-31
2022/04/25 11:32:37;;;;;;;7.70;2.20;;;;;;;12.99;83.15;101463.09;5110114;28;20138;-28
2022/04/25 11:35:05;;;;;;;5.55;2.25;;;;;;;12.93;83.69;101463.47;5103763;28;20129;-30
2022/04/25 11:37:35;;;;;;;8.07;2.33;;;;;;;12.93;84.10;101466.28;5113632;28;20066;-28
2022/04/25 11:40:05;;;;;;;6.63;1.95;;;;;;;12.85;84.53;101472.53;5113986;27;20028;-29
2022/04/25 11:42:35;;;;;;;6.68;2.20;;;;;;;12.76;85.68;101461.19;5110763;28;20047;-31
2022/04/25 11:45:05;;;;;;;6.47;2.30;;;;;;;12.70;86.99;101468.81;5113439;28;20047;-26
2022/04/25 11:47:33;;;;;;;6.78;2.45;;;;;;;12.67;88.13;101468.56;5113851;28;20135;-28
2022/04/25 11:50:03;;;;;;;6.32;2.28;;;;;;;12.67;88.61;101475.00;5114485;28;20492;-28
2022/04/25 11:52:31;;;;;;;8.15;2.58;;;;;;;12.69;88.74;101475.53;5112062;28;20158;-26
2022/04/25 11:54:59;;;;;;;7.28;2.20;;;;;;;12.74;88.77;101475.50;5113900;28;20519;-28
2022/04/25 11:57:28;;;;;;;6.15;2.47;;;;;;;12.80;88.08;101469.78;5113856;28;20055;-29
2022/04/25 12:00:14;;;;;;;7.35;2.90;;;;;;;12.83;87.68;101470.03;5112951;27;20035;-26
2022/04/25 12:02:43;;;;;;;9.10;2.92;;;;;;;12.81;87.49;101474.28;5113647;28;20047;-27
2022/04/25 12:05:12;;;;;;;5.57;2.60;;;;;;;12.83;87.11;101472.00;5113849;28;20557;-29
2022/04/25 12:15:34;;;;;;;6.75;2.63;;;;;;;12.82;87.09;101467.53;5112791;28;20051;-29
2022/04/25 12:16:07;;;;;;;7.07;2.40;;;;;;;12.58;86.90;101482.41;5113542;27;20036;-27